sensor_id;sensor_type;location;lat;lon;timestamp;P1;durP1;ratioP1;P2;durP2;ratioP2
59189;SDS011;50749;51.636;4.948;2023-07-29T00:01:32;1.80;;;1.10;;
59189;SDS011;50749;51.636;4.948;2023-07-29T00:03:59;1.40;;;1.00;;
59189;SDS011;50749;51.636;4.948;2023-07-29T00:06:26;2.30;;;1.15;;
59189;SDS011;50749;51.636;4.948;2023-07-29T00:08:51;2.50;;;1.27;;
59189;SDS011;50749;51.636;4.948;2023-07-29T00:11:17;3.33;;;1.52;;
59189;SDS011;50749;51.636;4.948;2023-07-29T00:13:43;2.58;;;1.10;;
59189;SDS011;50749;51.636;4.948;2023-07-29T00:16:09;1.98;;;1.00;;
59189;SDS011;50749;51.636;4.948;2023-07-29T00:18:35;2.38;;;1.02;;
59189;SDS011;50749;51.636;4.948;2023-07-29T00:21:01;2.65;;;1.40;;
59189;SDS011;50749;51.636;4.948;2023-07-29T00:23:27;1.65;;;1.10;;
59189;SDS011;50749;51.636;4.948;2023-07-29T00:25:53;2.33;;;1.38;;
59189;SDS011;50749;51.636;4.948;2023-07-29T00:28:19;1.95;;;1.20;;
59189;SDS011;50749;51.636;4.948;2023-07-29T00:30:44;2.42;;;1.38;;
59189;SDS011;50749;51.636;4.948;2023-07-29T00:33:10;2.00;;;1.33;;
59189;SDS011;50749;51.636;4.948;2023-07-29T00:35:36;2.20;;;1.25;;
59189;SDS011;50749;51.636;4.948;2023-07-29T00:38:01;2.80;;;1.27;;
59189;SDS011;50749;51.636;4.948;2023-07-29T00:40:28;1.83;;;1.23;;
59189;SDS011;50749;51.636;4.948;2023-07-29T00:42:54;3.35;;;1.35;;
59189;SDS011;50749;51.636;4.948;2023-07-29T00:45:20;2.55;;;1.30;;
59189;SDS011;50749;51.636;4.948;2023-07-29T00:47:46;1.65;;;1.02;;
59189;SDS011;50749;51.636;4.948;2023-07-29T00:50:12;3.22;;;1.10;;
59189;SDS011;50749;51.636;4.948;2023-07-29T00:52:39;2.05;;;1.20;;
59189;SDS011;50749;51.636;4.948;2023-07-29T00:55:06;3.53;;;1.20;;
59189;SDS011;50749;51.636;4.948;2023-07-29T00:57:32;1.80;;;1.15;;
59189;SDS011;50749;51.636;4.948;2023-07-29T00:59:59;2.30;;;1.30;;
59189;SDS011;50749;51.636;4.948;2023-07-29T01:02:25;2.47;;;1.10;;
59189;SDS011;50749;51.636;4.948;2023-07-29T01:04:53;2.47;;;1.27;;
59189;SDS011;50749;51.636;4.948;2023-07-29T01:09:56;3.10;;;1.00;;
59189;SDS011;50749;51.636;4.948;2023-07-29T01:13:01;2.33;;;1.10;;
59189;SDS011;50749;51.636;4.948;2023-07-29T01:15:28;1.20;;;0.80;;
59189;SDS011;50749;51.636;4.948;2023-07-29T01:18:00;1.98;;;1.08;;
59189;SDS011;50749;51.636;4.948;2023-07-29T01:20:32;1.77;;;1.00;;
59189;SDS011;50749;51.636;4.948;2023-07-29T01:22:59;1.50;;;0.90;;
59189;SDS011;50749;51.636;4.948;2023-07-29T01:25:25;4.70;;;1.20;;
59189;SDS011;50749;51.636;4.948;2023-07-29T01:27:51;2.45;;;1.15;;
59189;SDS011;50749;51.636;4.948;2023-07-29T01:30:18;1.70;;;0.85;;
59189;SDS011;50749;51.636;4.948;2023-07-29T01:32:55;1.40;;;0.90;;
59189;SDS011;50749;51.636;4.948;2023-07-29T01:38:21;1.55;;;0.80;;
59189;SDS011;50749;51.636;4.948;2023-07-29T01:40:57;1.15;;;0.85;;
59189;SDS011;50749;51.636;4.948;2023-07-29T01:43:23;3.00;;;1.00;;
59189;SDS011;50749;51.636;4.948;2023-07-29T01:45:51;3.22;;;0.82;;
59189;SDS011;50749;51.636;4.948;2023-07-29T01:48:17;2.85;;;1.00;;
59189;SDS011;50749;51.636;4.948;2023-07-29T01:50:43;2.15;;;0.90;;
59189;SDS011;50749;51.636;4.948;2023-07-29T01:53:08;1.63;;;0.77;;
59189;SDS011;50749;51.636;4.948;2023-07-29T01:55:34;1.40;;;0.85;;
59189;SDS011;50749;51.636;4.948;2023-07-29T01:58:00;1.67;;;0.73;;
59189;SDS011;50749;51.636;4.948;2023-07-29T02:00:26;1.90;;;0.98;;
59189;SDS011;50749;51.636;4.948;2023-07-29T02:02:51;1.90;;;0.93;;
59189;SDS011;50749;51.636;4.948;2023-07-29T02:05:17;1.85;;;0.90;;
59189;SDS011;50749;51.636;4.948;2023-07-29T02:07:43;1.02;;;0.70;;
59189;SDS011;50749;51.636;4.948;2023-07-29T02:10:09;1.88;;;0.80;;
59189;SDS011;50749;51.636;4.948;2023-07-29T02:12:34;2.15;;;1.00;;
59189;SDS011;50749;51.636;4.948;2023-07-29T02:15:00;0.85;;;0.70;;
59189;SDS011;50749;51.636;4.948;2023-07-29T02:17:26;2.00;;;0.82;;
59189;SDS011;50749;51.636;4.948;2023-07-29T02:19:52;1.92;;;1.00;;
59189;SDS011;50749;51.636;4.948;2023-07-29T02:22:17;1.13;;;0.80;;
59189;SDS011;50749;51.636;4.948;2023-07-29T02:24:44;2.08;;;1.10;;
59189;SDS011;50749;51.636;4.948;2023-07-29T02:27:10;1.75;;;0.95;;
59189;SDS011;50749;51.636;4.948;2023-07-29T02:29:36;1.27;;;0.80;;
59189;SDS011;50749;51.636;4.948;2023-07-29T02:32:02;1.85;;;0.93;;
59189;SDS011;50749;51.636;4.948;2023-07-29T02:34:29;1.58;;;0.60;;
59189;SDS011;50749;51.636;4.948;2023-07-29T02:36:55;1.17;;;0.82;;
59189;SDS011;50749;51.636;4.948;2023-07-29T02:39:20;1.17;;;0.65;;
59189;SDS011;50749;51.636;4.948;2023-07-29T02:41:47;1.55;;;0.70;;
59189;SDS011;50749;51.636;4.948;2023-07-29T02:44:13;1.45;;;0.90;;
59189;SDS011;50749;51.636;4.948;2023-07-29T02:46:38;0.95;;;0.80;;
59189;SDS011;50749;51.636;4.948;2023-07-29T02:49:04;1.08;;;0.68;;
59189;SDS011;50749;51.636;4.948;2023-07-29T02:51:30;1.17;;;0.63;;
59189;SDS011;50749;51.636;4.948;2023-07-29T02:53:56;1.45;;;0.90;;
59189;SDS011;50749;51.636;4.948;2023-07-29T02:56:22;0.98;;;0.68;;
59189;SDS011;50749;51.636;4.948;2023-07-29T02:58:48;1.35;;;0.65;;
59189;SDS011;50749;51.636;4.948;2023-07-29T03:01:13;1.23;;;0.68;;
59189;SDS011;50749;51.636;4.948;2023-07-29T03:03:39;1.00;;;0.70;;
59189;SDS011;50749;51.636;4.948;2023-07-29T03:06:06;1.77;;;0.77;;
59189;SDS011;50749;51.636;4.948;2023-07-29T03:08:34;1.00;;;0.70;;
59189;SDS011;50749;51.636;4.948;2023-07-29T03:11:05;2.58;;;0.80;;
59189;SDS011;50749;51.636;4.948;2023-07-29T03:13:32;1.30;;;0.98;;
59189;SDS011;50749;51.636;4.948;2023-07-29T03:16:08;3.00;;;1.02;;
59189;SDS011;50749;51.636;4.948;2023-07-29T03:18:39;2.05;;;0.80;;
59189;SDS011;50749;51.636;4.948;2023-07-29T03:21:05;1.38;;;0.80;;
59189;SDS011;50749;51.636;4.948;2023-07-29T03:23:32;1.65;;;0.80;;
59189;SDS011;50749;51.636;4.948;2023-07-29T03:25:59;1.50;;;0.77;;
59189;SDS011;50749;51.636;4.948;2023-07-29T03:28:27;1.00;;;0.65;;
59189;SDS011;50749;51.636;4.948;2023-07-29T03:30:57;1.48;;;0.60;;
59189;SDS011;50749;51.636;4.948;2023-07-29T03:33:23;2.22;;;0.88;;
59189;SDS011;50749;51.636;4.948;2023-07-29T03:35:50;1.83;;;0.90;;
59189;SDS011;50749;51.636;4.948;2023-07-29T03:38:16;1.27;;;0.82;;
59189;SDS011;50749;51.636;4.948;2023-07-29T03:40:42;1.52;;;0.90;;
59189;SDS011;50749;51.636;4.948;2023-07-29T03:43:08;1.63;;;0.80;;
59189;SDS011;50749;51.636;4.948;2023-07-29T03:45:34;2.10;;;1.00;;
59189;SDS011;50749;51.636;4.948;2023-07-29T03:48:01;1.65;;;0.93;;
59189;SDS011;50749;51.636;4.948;2023-07-29T03:50:28;2.08;;;0.90;;
59189;SDS011;50749;51.636;4.948;2023-07-29T03:52:55;1.85;;;0.80;;
59189;SDS011;50749;51.636;4.948;2023-07-29T03:55:21;2.33;;;1.00;;
59189;SDS011;50749;51.636;4.948;2023-07-29T03:57:47;1.83;;;1.00;;
59189;SDS011;50749;51.636;4.948;2023-07-29T04:00:13;1.42;;;0.80;;
59189;SDS011;50749;51.636;4.948;2023-07-29T04:02:38;1.85;;;1.10;;
59189;SDS011;50749;51.636;4.948;2023-07-29T04:05:04;1.20;;;0.70;;
59189;SDS011;50749;51.636;4.948;2023-07-29T04:07:34;1.15;;;0.75;;
59189;SDS011;50749;51.636;4.948;2023-07-29T04:10:00;4.68;;;1.00;;
59189;SDS011;50749;51.636;4.948;2023-07-29T04:12:26;1.77;;;0.88;;
59189;SDS011;50749;51.636;4.948;2023-07-29T04:14:52;2.55;;;0.90;;
59189;SDS011;50749;51.636;4.948;2023-07-29T04:17:18;2.88;;;0.90;;
59189;SDS011;50749;51.636;4.948;2023-07-29T04:19:44;1.55;;;0.90;;
59189;SDS011;50749;51.636;4.948;2023-07-29T04:22:10;1.70;;;0.93;;
59189;SDS011;50749;51.636;4.948;2023-07-29T04:24:35;3.28;;;1.08;;
59189;SDS011;50749;51.636;4.948;2023-07-29T04:27:01;1.20;;;0.80;;
59189;SDS011;50749;51.636;4.948;2023-07-29T04:29:27;1.67;;;0.90;;
59189;SDS011;50749;51.636;4.948;2023-07-29T04:31:53;2.70;;;1.00;;
59189;SDS011;50749;51.636;4.948;2023-07-29T04:34:19;2.80;;;1.50;;
59189;SDS011;50749;51.636;4.948;2023-07-29T04:36:45;1.17;;;0.80;;
59189;SDS011;50749;51.636;4.948;2023-07-29T04:39:12;1.92;;;1.23;;
59189;SDS011;50749;51.636;4.948;2023-07-29T04:41:38;1.70;;;1.00;;
59189;SDS011;50749;51.636;4.948;2023-07-29T04:44:03;2.70;;;0.95;;
59189;SDS011;50749;51.636;4.948;2023-07-29T04:46:29;1.80;;;1.05;;
59189;SDS011;50749;51.636;4.948;2023-07-29T04:48:55;1.80;;;0.98;;
59189;SDS011;50749;51.636;4.948;2023-07-29T04:51:21;2.10;;;1.10;;
59189;SDS011;50749;51.636;4.948;2023-07-29T04:53:47;1.70;;;0.93;;
59189;SDS011;50749;51.636;4.948;2023-07-29T04:56:13;2.03;;;1.00;;
59189;SDS011;50749;51.636;4.948;2023-07-29T04:58:38;1.50;;;0.90;;
59189;SDS011;50749;51.636;4.948;2023-07-29T05:01:04;1.75;;;0.90;;
59189;SDS011;50749;51.636;4.948;2023-07-29T05:03:31;1.35;;;0.80;;
59189;SDS011;50749;51.636;4.948;2023-07-29T05:05:57;2.50;;;1.02;;
59189;SDS011;50749;51.636;4.948;2023-07-29T05:08:23;1.50;;;1.08;;
59189;SDS011;50749;51.636;4.948;2023-07-29T05:10:50;2.42;;;1.17;;
59189;SDS011;50749;51.636;4.948;2023-07-29T05:13:16;1.95;;;1.00;;
59189;SDS011;50749;51.636;4.948;2023-07-29T05:15:42;1.63;;;0.93;;
59189;SDS011;50749;51.636;4.948;2023-07-29T05:18:08;2.63;;;0.93;;
59189;SDS011;50749;51.636;4.948;2023-07-29T05:20:34;2.53;;;1.00;;
59189;SDS011;50749;51.636;4.948;2023-07-29T05:23:00;1.92;;;0.95;;
59189;SDS011;50749;51.636;4.948;2023-07-29T05:25:26;2.20;;;1.10;;
59189;SDS011;50749;51.636;4.948;2023-07-29T05:27:52;3.42;;;1.00;;
59189;SDS011;50749;51.636;4.948;2023-07-29T05:30:18;1.67;;;0.80;;
59189;SDS011;50749;51.636;4.948;2023-07-29T05:32:44;1.73;;;1.00;;
59189;SDS011;50749;51.636;4.948;2023-07-29T05:35:10;1.38;;;1.00;;
59189;SDS011;50749;51.636;4.948;2023-07-29T05:37:37;1.65;;;0.98;;
59189;SDS011;50749;51.636;4.948;2023-07-29T05:40:05;1.45;;;0.90;;
59189;SDS011;50749;51.636;4.948;2023-07-29T05:42:32;4.38;;;1.20;;
59189;SDS011;50749;51.636;4.948;2023-07-29T05:44:58;1.58;;;0.88;;
59189;SDS011;50749;51.636;4.948;2023-07-29T05:47:24;1.83;;;1.08;;
59189;SDS011;50749;51.636;4.948;2023-07-29T05:49:50;2.40;;;1.00;;
59189;SDS011;50749;51.636;4.948;2023-07-29T05:52:15;4.80;;;1.20;;
59189;SDS011;50749;51.636;4.948;2023-07-29T05:54:41;1.70;;;1.02;;
59189;SDS011;50749;51.636;4.948;2023-07-29T05:57:09;2.63;;;0.98;;
59189;SDS011;50749;51.636;4.948;2023-07-29T05:59:35;1.90;;;1.10;;
59189;SDS011;50749;51.636;4.948;2023-07-29T06:02:00;1.80;;;0.77;;
59189;SDS011;50749;51.636;4.948;2023-07-29T06:04:26;2.40;;;1.33;;
59189;SDS011;50749;51.636;4.948;2023-07-29T06:06:52;1.83;;;0.90;;
59189;SDS011;50749;51.636;4.948;2023-07-29T06:09:18;1.23;;;0.95;;
59189;SDS011;50749;51.636;4.948;2023-07-29T06:11:43;2.00;;;1.02;;
59189;SDS011;50749;51.636;4.948;2023-07-29T06:14:09;1.55;;;0.70;;
59189;SDS011;50749;51.636;4.948;2023-07-29T06:16:35;2.13;;;1.00;;
59189;SDS011;50749;51.636;4.948;2023-07-29T06:19:01;1.30;;;0.80;;
59189;SDS011;50749;51.636;4.948;2023-07-29T06:21:26;5.45;;;1.02;;
59189;SDS011;50749;51.636;4.948;2023-07-29T06:23:52;2.63;;;1.25;;
59189;SDS011;50749;51.636;4.948;2023-07-29T06:26:18;1.83;;;1.10;;
59189;SDS011;50749;51.636;4.948;2023-07-29T06:28:44;2.92;;;1.10;;
59189;SDS011;50749;51.636;4.948;2023-07-29T06:31:09;1.95;;;1.10;;
59189;SDS011;50749;51.636;4.948;2023-07-29T06:33:35;2.22;;;1.02;;
59189;SDS011;50749;51.636;4.948;2023-07-29T06:36:01;1.55;;;0.90;;
59189;SDS011;50749;51.636;4.948;2023-07-29T06:38:27;4.88;;;1.00;;
59189;SDS011;50749;51.636;4.948;2023-07-29T06:40:53;2.55;;;1.00;;
59189;SDS011;50749;51.636;4.948;2023-07-29T06:43:18;1.75;;;0.98;;
59189;SDS011;50749;51.636;4.948;2023-07-29T06:45:44;2.75;;;1.20;;
59189;SDS011;50749;51.636;4.948;2023-07-29T06:48:10;3.20;;;1.10;;
59189;SDS011;50749;51.636;4.948;2023-07-29T06:50:36;2.17;;;1.10;;
59189;SDS011;50749;51.636;4.948;2023-07-29T06:53:02;2.75;;;0.80;;
59189;SDS011;50749;51.636;4.948;2023-07-29T06:55:28;1.92;;;1.05;;
59189;SDS011;50749;51.636;4.948;2023-07-29T06:57:54;2.53;;;1.00;;
59189;SDS011;50749;51.636;4.948;2023-07-29T07:00:20;1.95;;;1.15;;
59189;SDS011;50749;51.636;4.948;2023-07-29T07:02:46;3.25;;;1.45;;
59189;SDS011;50749;51.636;4.948;2023-07-29T07:05:11;4.47;;;1.25;;
59189;SDS011;50749;51.636;4.948;2023-07-29T07:07:37;2.00;;;1.13;;
59189;SDS011;50749;51.636;4.948;2023-07-29T07:10:03;1.40;;;0.80;;
59189;SDS011;50749;51.636;4.948;2023-07-29T07:12:29;3.08;;;1.40;;
59189;SDS011;50749;51.636;4.948;2023-07-29T07:14:55;3.17;;;1.30;;
59189;SDS011;50749;51.636;4.948;2023-07-29T07:17:21;4.45;;;1.63;;
59189;SDS011;50749;51.636;4.948;2023-07-29T07:19:46;6.35;;;1.25;;
59189;SDS011;50749;51.636;4.948;2023-07-29T07:22:13;5.45;;;1.67;;
59189;SDS011;50749;51.636;4.948;2023-07-29T07:24:38;6.65;;;1.83;;
59189;SDS011;50749;51.636;4.948;2023-07-29T07:27:04;3.88;;;1.23;;
59189;SDS011;50749;51.636;4.948;2023-07-29T07:29:30;3.47;;;1.00;;
59189;SDS011;50749;51.636;4.948;2023-07-29T07:31:56;2.58;;;0.90;;
59189;SDS011;50749;51.636;4.948;2023-07-29T07:34:22;2.78;;;1.40;;
59189;SDS011;50749;51.636;4.948;2023-07-29T07:36:48;4.53;;;1.02;;
59189;SDS011;50749;51.636;4.948;2023-07-29T07:39:14;4.22;;;1.00;;
59189;SDS011;50749;51.636;4.948;2023-07-29T07:41:41;2.65;;;1.17;;
59189;SDS011;50749;51.636;4.948;2023-07-29T07:44:07;2.50;;;1.23;;
59189;SDS011;50749;51.636;4.948;2023-07-29T07:46:33;2.22;;;1.30;;
59189;SDS011;50749;51.636;4.948;2023-07-29T07:48:59;1.90;;;1.10;;
59189;SDS011;50749;51.636;4.948;2023-07-29T07:51:25;2.47;;;0.90;;
59189;SDS011;50749;51.636;4.948;2023-07-29T07:53:51;1.30;;;0.80;;
59189;SDS011;50749;51.636;4.948;2023-07-29T07:56:17;1.30;;;0.90;;
59189;SDS011;50749;51.636;4.948;2023-07-29T07:58:42;1.67;;;0.85;;
59189;SDS011;50749;51.636;4.948;2023-07-29T08:01:08;1.42;;;0.80;;
59189;SDS011;50749;51.636;4.948;2023-07-29T08:03:35;3.05;;;1.30;;
59189;SDS011;50749;51.636;4.948;2023-07-29T08:06:01;1.90;;;0.82;;
59189;SDS011;50749;51.636;4.948;2023-07-29T08:08:28;1.63;;;0.98;;
59189;SDS011;50749;51.636;4.948;2023-07-29T08:10:54;3.25;;;0.85;;
59189;SDS011;50749;51.636;4.948;2023-07-29T08:13:21;1.60;;;0.80;;
59189;SDS011;50749;51.636;4.948;2023-07-29T08:15:48;1.75;;;1.00;;
59189;SDS011;50749;51.636;4.948;2023-07-29T08:18:15;1.40;;;0.90;;
59189;SDS011;50749;51.636;4.948;2023-07-29T08:20:51;2.25;;;1.13;;
59189;SDS011;50749;51.636;4.948;2023-07-29T08:23:18;2.10;;;0.90;;
59189;SDS011;50749;51.636;4.948;2023-07-29T08:25:44;1.27;;;0.93;;
59189;SDS011;50749;51.636;4.948;2023-07-29T08:28:09;3.72;;;0.98;;
59189;SDS011;50749;51.636;4.948;2023-07-29T08:30:36;4.35;;;1.30;;
59189;SDS011;50749;51.636;4.948;2023-07-29T08:33:02;1.90;;;1.00;;
59189;SDS011;50749;51.636;4.948;2023-07-29T08:35:28;1.58;;;1.10;;
59189;SDS011;50749;51.636;4.948;2023-07-29T08:37:54;2.55;;;1.00;;
59189;SDS011;50749;51.636;4.948;2023-07-29T08:40:23;2.17;;;1.10;;
59189;SDS011;50749;51.636;4.948;2023-07-29T08:42:52;2.40;;;1.50;;
59189;SDS011;50749;51.636;4.948;2023-07-29T08:45:20;2.30;;;0.88;;
59189;SDS011;50749;51.636;4.948;2023-07-29T08:47:46;2.33;;;0.98;;
59189;SDS011;50749;51.636;4.948;2023-07-29T08:50:15;2.53;;;1.35;;
59189;SDS011;50749;51.636;4.948;2023-07-29T08:52:41;2.05;;;1.02;;
59189;SDS011;50749;51.636;4.948;2023-07-29T08:55:09;1.77;;;0.88;;
59189;SDS011;50749;51.636;4.948;2023-07-29T08:57:35;2.53;;;1.20;;
59189;SDS011;50749;51.636;4.948;2023-07-29T09:00:02;2.47;;;0.95;;
59189;SDS011;50749;51.636;4.948;2023-07-29T09:02:28;2.83;;;0.82;;
59189;SDS011;50749;51.636;4.948;2023-07-29T09:04:54;1.60;;;1.08;;
59189;SDS011;50749;51.636;4.948;2023-07-29T09:07:20;2.20;;;0.95;;
59189;SDS011;50749;51.636;4.948;2023-07-29T09:09:46;2.65;;;0.88;;
59189;SDS011;50749;51.636;4.948;2023-07-29T09:12:12;1.02;;;0.80;;
59189;SDS011;50749;51.636;4.948;2023-07-29T09:14:38;1.20;;;0.80;;
59189;SDS011;50749;51.636;4.948;2023-07-29T09:17:06;2.97;;;1.15;;
59189;SDS011;50749;51.636;4.948;2023-07-29T09:19:33;5.18;;;0.85;;
59189;SDS011;50749;51.636;4.948;2023-07-29T09:21:59;1.67;;;0.82;;
59189;SDS011;50749;51.636;4.948;2023-07-29T09:24:25;1.73;;;1.00;;
59189;SDS011;50749;51.636;4.948;2023-07-29T09:26:54;3.25;;;1.25;;
59189;SDS011;50749;51.636;4.948;2023-07-29T09:29:21;1.35;;;0.90;;
59189;SDS011;50749;51.636;4.948;2023-07-29T09:31:48;1.27;;;0.77;;
59189;SDS011;50749;51.636;4.948;2023-07-29T09:34:14;2.25;;;0.90;;
59189;SDS011;50749;51.636;4.948;2023-07-29T09:36:41;4.03;;;0.80;;
59189;SDS011;50749;51.636;4.948;2023-07-29T09:39:10;2.88;;;1.25;;
59189;SDS011;50749;51.636;4.948;2023-07-29T09:41:38;3.47;;;1.20;;
59189;SDS011;50749;51.636;4.948;2023-07-29T09:44:04;4.05;;;0.88;;
59189;SDS011;50749;51.636;4.948;2023-07-29T09:46:34;1.67;;;0.93;;
59189;SDS011;50749;51.636;4.948;2023-07-29T09:49:05;2.13;;;1.08;;
59189;SDS011;50749;51.636;4.948;2023-07-29T09:51:32;1.33;;;0.80;;
59189;SDS011;50749;51.636;4.948;2023-07-29T09:54:03;1.90;;;1.10;;
59189;SDS011;50749;51.636;4.948;2023-07-29T09:56:29;2.28;;;1.10;;
59189;SDS011;50749;51.636;4.948;2023-07-29T09:58:55;5.43;;;0.95;;
59189;SDS011;50749;51.636;4.948;2023-07-29T10:01:22;4.80;;;1.17;;
59189;SDS011;50749;51.636;4.948;2023-07-29T10:03:49;1.63;;;0.90;;
59189;SDS011;50749;51.636;4.948;2023-07-29T10:06:15;3.45;;;1.10;;
59189;SDS011;50749;51.636;4.948;2023-07-29T10:08:42;2.05;;;1.10;;
59189;SDS011;50749;51.636;4.948;2023-07-29T10:11:09;2.05;;;1.20;;
59189;SDS011;50749;51.636;4.948;2023-07-29T10:13:37;1.63;;;1.10;;
59189;SDS011;50749;51.636;4.948;2023-07-29T10:16:03;2.60;;;1.60;;
59189;SDS011;50749;51.636;4.948;2023-07-29T10:18:31;1.52;;;1.17;;
59189;SDS011;50749;51.636;4.948;2023-07-29T10:20:59;1.80;;;1.02;;
59189;SDS011;50749;51.636;4.948;2023-07-29T10:23:26;1.80;;;1.00;;
59189;SDS011;50749;51.636;4.948;2023-07-29T10:26:03;2.10;;;1.20;;
59189;SDS011;50749;51.636;4.948;2023-07-29T10:28:30;2.13;;;1.10;;
59189;SDS011;50749;51.636;4.948;2023-07-29T10:30:57;2.17;;;1.33;;
59189;SDS011;50749;51.636;4.948;2023-07-29T10:33:24;3.65;;;1.63;;
59189;SDS011;50749;51.636;4.948;2023-07-29T10:35:50;2.55;;;1.58;;
59189;SDS011;50749;51.636;4.948;2023-07-29T10:38:18;2.45;;;1.70;;
59189;SDS011;50749;51.636;4.948;2023-07-29T10:40:56;2.53;;;1.70;;
59189;SDS011;50749;51.636;4.948;2023-07-29T10:43:25;2.90;;;1.42;;
59189;SDS011;50749;51.636;4.948;2023-07-29T10:45:58;5.60;;;1.50;;
59189;SDS011;50749;51.636;4.948;2023-07-29T10:54:09;2.30;;;1.60;;
59189;SDS011;50749;51.636;4.948;2023-07-29T10:56:40;14.88;;;3.33;;
59189;SDS011;50749;51.636;4.948;2023-07-29T11:01:42;2.95;;;1.40;;
59189;SDS011;50749;51.636;4.948;2023-07-29T11:09:41;4.05;;;1.85;;
59189;SDS011;50749;51.636;4.948;2023-07-29T11:15:04;6.15;;;1.60;;
59189;SDS011;50749;51.636;4.948;2023-07-29T11:17:44;2.95;;;1.58;;
59189;SDS011;50749;51.636;4.948;2023-07-29T11:20:11;8.80;;;2.03;;
59189;SDS011;50749;51.636;4.948;2023-07-29T11:22:37;2.88;;;1.73;;
59189;SDS011;50749;51.636;4.948;2023-07-29T11:25:04;4.05;;;1.70;;
59189;SDS011;50749;51.636;4.948;2023-07-29T11:27:30;3.15;;;1.40;;
59189;SDS011;50749;51.636;4.948;2023-07-29T11:29:57;4.55;;;1.25;;
59189;SDS011;50749;51.636;4.948;2023-07-29T11:32:23;2.45;;;1.10;;
59189;SDS011;50749;51.636;4.948;2023-07-29T11:34:50;4.07;;;1.38;;
59189;SDS011;50749;51.636;4.948;2023-07-29T11:37:16;2.25;;;1.08;;
59189;SDS011;50749;51.636;4.948;2023-07-29T11:39:43;3.13;;;1.35;;
59189;SDS011;50749;51.636;4.948;2023-07-29T11:42:13;1.92;;;1.17;;
59189;SDS011;50749;51.636;4.948;2023-07-29T11:44:40;3.17;;;1.40;;
59189;SDS011;50749;51.636;4.948;2023-07-29T11:47:07;1.85;;;1.10;;
59189;SDS011;50749;51.636;4.948;2023-07-29T11:49:40;2.42;;;1.02;;
59189;SDS011;50749;51.636;4.948;2023-07-29T11:52:07;3.15;;;1.40;;
59189;SDS011;50749;51.636;4.948;2023-07-29T11:54:37;5.03;;;1.27;;
59189;SDS011;50749;51.636;4.948;2023-07-29T11:57:05;3.55;;;1.10;;
59189;SDS011;50749;51.636;4.948;2023-07-29T11:59:35;1.88;;;0.90;;
59189;SDS011;50749;51.636;4.948;2023-07-29T12:02:36;1.92;;;1.02;;
59189;SDS011;50749;51.636;4.948;2023-07-29T12:04:55;2.70;;;0.85;;
59189;SDS011;50749;51.636;4.948;2023-07-29T12:07:22;2.30;;;1.13;;
59189;SDS011;50749;51.636;4.948;2023-07-29T12:09:48;3.25;;;1.13;;
59189;SDS011;50749;51.636;4.948;2023-07-29T12:12:15;2.38;;;0.80;;
59189;SDS011;50749;51.636;4.948;2023-07-29T12:14:45;2.13;;;0.98;;
59189;SDS011;50749;51.636;4.948;2023-07-29T12:17:13;2.58;;;1.10;;
59189;SDS011;50749;51.636;4.948;2023-07-29T12:19:40;2.88;;;1.30;;
59189;SDS011;50749;51.636;4.948;2023-07-29T12:22:07;1.27;;;1.00;;
59189;SDS011;50749;51.636;4.948;2023-07-29T12:24:36;2.63;;;1.10;;
59189;SDS011;50749;51.636;4.948;2023-07-29T12:27:03;3.17;;;1.45;;
59189;SDS011;50749;51.636;4.948;2023-07-29T12:29:30;3.35;;;1.02;;
59189;SDS011;50749;51.636;4.948;2023-07-29T12:31:59;1.77;;;1.08;;
59189;SDS011;50749;51.636;4.948;2023-07-29T12:34:29;3.10;;;1.20;;
59189;SDS011;50749;51.636;4.948;2023-07-29T12:36:57;2.60;;;1.30;;
59189;SDS011;50749;51.636;4.948;2023-07-29T12:39:25;1.63;;;1.10;;
59189;SDS011;50749;51.636;4.948;2023-07-29T12:41:55;2.63;;;1.05;;
59189;SDS011;50749;51.636;4.948;2023-07-29T12:44:24;2.75;;;1.30;;
59189;SDS011;50749;51.636;4.948;2023-07-29T12:47:00;3.95;;;1.20;;
59189;SDS011;50749;51.636;4.948;2023-07-29T12:49:27;2.08;;;0.90;;
59189;SDS011;50749;51.636;4.948;2023-07-29T12:51:53;3.97;;;1.25;;
59189;SDS011;50749;51.636;4.948;2023-07-29T12:54:19;3.90;;;1.13;;
59189;SDS011;50749;51.636;4.948;2023-07-29T12:56:45;1.38;;;0.98;;
59189;SDS011;50749;51.636;4.948;2023-07-29T12:59:11;2.63;;;1.10;;
59189;SDS011;50749;51.636;4.948;2023-07-29T13:01:37;4.18;;;1.10;;
59189;SDS011;50749;51.636;4.948;2023-07-29T13:04:03;2.33;;;1.15;;
59189;SDS011;50749;51.636;4.948;2023-07-29T13:06:28;3.05;;;1.20;;
59189;SDS011;50749;51.636;4.948;2023-07-29T13:08:54;4.15;;;0.95;;
59189;SDS011;50749;51.636;4.948;2023-07-29T13:11:20;2.25;;;1.00;;
59189;SDS011;50749;51.636;4.948;2023-07-29T13:13:46;1.67;;;1.08;;
59189;SDS011;50749;51.636;4.948;2023-07-29T13:16:11;4.22;;;1.45;;
59189;SDS011;50749;51.636;4.948;2023-07-29T13:18:38;1.80;;;1.10;;
59189;SDS011;50749;51.636;4.948;2023-07-29T13:21:04;1.67;;;1.20;;
59189;SDS011;50749;51.636;4.948;2023-07-29T13:23:30;2.00;;;1.17;;
59189;SDS011;50749;51.636;4.948;2023-07-29T13:25:56;2.10;;;1.23;;
59189;SDS011;50749;51.636;4.948;2023-07-29T13:28:23;1.45;;;0.95;;
59189;SDS011;50749;51.636;4.948;2023-07-29T13:30:49;2.88;;;1.23;;
59189;SDS011;50749;51.636;4.948;2023-07-29T13:33:15;3.17;;;1.40;;
59189;SDS011;50749;51.636;4.948;2023-07-29T13:35:40;1.35;;;1.02;;
59189;SDS011;50749;51.636;4.948;2023-07-29T13:38:06;1.95;;;1.05;;
59189;SDS011;50749;51.636;4.948;2023-07-29T13:40:32;2.63;;;1.30;;
59189;SDS011;50749;51.636;4.948;2023-07-29T13:42:58;1.80;;;1.30;;
59189;SDS011;50749;51.636;4.948;2023-07-29T13:45:23;3.22;;;1.23;;
59189;SDS011;50749;51.636;4.948;2023-07-29T13:47:49;2.45;;;1.45;;
59189;SDS011;50749;51.636;4.948;2023-07-29T13:50:15;3.10;;;1.20;;
59189;SDS011;50749;51.636;4.948;2023-07-29T13:52:42;5.55;;;1.90;;
59189;SDS011;50749;51.636;4.948;2023-07-29T13:55:07;3.40;;;1.80;;
59189;SDS011;50749;51.636;4.948;2023-07-29T13:57:33;2.42;;;1.65;;
59189;SDS011;50749;51.636;4.948;2023-07-29T13:59:59;2.97;;;1.60;;
59189;SDS011;50749;51.636;4.948;2023-07-29T14:02:25;2.28;;;1.48;;
59189;SDS011;50749;51.636;4.948;2023-07-29T14:04:51;2.65;;;1.67;;
59189;SDS011;50749;51.636;4.948;2023-07-29T14:07:18;2.20;;;1.50;;
59189;SDS011;50749;51.636;4.948;2023-07-29T14:09:43;1.73;;;1.50;;
59189;SDS011;50749;51.636;4.948;2023-07-29T14:12:09;2.20;;;1.70;;
59189;SDS011;50749;51.636;4.948;2023-07-29T14:14:40;2.28;;;1.60;;
59189;SDS011;50749;51.636;4.948;2023-07-29T14:17:06;3.08;;;1.63;;
59189;SDS011;50749;51.636;4.948;2023-07-29T14:19:33;2.47;;;1.92;;
59189;SDS011;50749;51.636;4.948;2023-07-29T14:21:59;2.28;;;1.55;;
59189;SDS011;50749;51.636;4.948;2023-07-29T14:24:25;2.15;;;1.63;;
59189;SDS011;50749;51.636;4.948;2023-07-29T14:26:51;2.05;;;1.58;;
59189;SDS011;50749;51.636;4.948;2023-07-29T14:29:17;2.60;;;1.65;;
59189;SDS011;50749;51.636;4.948;2023-07-29T14:31:43;1.83;;;1.50;;
59189;SDS011;50749;51.636;4.948;2023-07-29T14:34:09;3.03;;;1.75;;
59189;SDS011;50749;51.636;4.948;2023-07-29T14:36:35;2.67;;;1.60;;
59189;SDS011;50749;51.636;4.948;2023-07-29T14:39:02;4.05;;;1.60;;
59189;SDS011;50749;51.636;4.948;2023-07-29T14:41:28;2.38;;;1.70;;
59189;SDS011;50749;51.636;4.948;2023-07-29T14:43:53;2.00;;;1.45;;
59189;SDS011;50749;51.636;4.948;2023-07-29T14:46:19;3.17;;;1.90;;
59189;SDS011;50749;51.636;4.948;2023-07-29T14:48:45;5.10;;;1.90;;
59189;SDS011;50749;51.636;4.948;2023-07-29T14:51:13;2.70;;;1.70;;
59189;SDS011;50749;51.636;4.948;2023-07-29T14:53:39;2.63;;;1.85;;
59189;SDS011;50749;51.636;4.948;2023-07-29T14:56:05;2.17;;;1.75;;
59189;SDS011;50749;51.636;4.948;2023-07-29T14:58:30;3.78;;;2.10;;
59189;SDS011;50749;51.636;4.948;2023-07-29T15:00:56;6.22;;;2.10;;
59189;SDS011;50749;51.636;4.948;2023-07-29T15:03:23;3.58;;;1.90;;
59189;SDS011;50749;51.636;4.948;2023-07-29T15:05:49;5.50;;;2.13;;
59189;SDS011;50749;51.636;4.948;2023-07-29T15:08:15;4.25;;;2.15;;